Historyczne dane pomiarowe

Dodano dane terminowe – wersja testowa.

Dane z okresu 1951-2019

Wersja bazy: 1.34 [2019-03-16, lista zmian], aktualizacja planowana na 2019-04-15

Dane meteo z obszaru Polski uzyskane na podstawie danych udostępnionych przez Instytut Meteorologii i Gospodarki Wodnej – Państwowy Instytut Badawczy.

 

Wybierz Datę:    

       

TemperaturaWilgotnośćZachmurzenieWiatrCiśnienieWidzialnośćZjawiska
 Data    tng td wb rh cc ccl cl cm ch dir g1 g2 mslp ppp      
1999-07-14 00:00:00 18.2--- 17.4 17.795wxwxwxwx1wx--1004.7 980.8 5.3---wxw1
1999-07-14 01:00:00 17.8--- 17.0 17.395wxwxwxwx2wx--1004.3 980.3----wxw1
1999-07-14 02:00:00 18.0--- 17.2 17.595wxwxwxwx2wx--1003.7 979.8----wxw1
1999-07-14 03:00:00 18.2--- 17.4 17.795wxwxwx1wx--1003.8 979.9----wxw1
1999-07-14 04:00:00 18.0--- 17.1 17.494wxwxwx1wx--1003.8 979.9----wx
1999-07-14 05:00:00 18.2--- 17.4 17.795wxwxwxwx2wx--1003.5 979.6----wx
1999-07-14 06:00:00 20.0--- 18.9 19.394wxwxwx3wx--1003.4 979.6 1.0---wxw1
1999-07-14 07:00:00 20.6--- 18.8 19.489wxwxwx3wx--1003.1 979.4----wx
1999-07-14 08:00:00 22.2--- 18.8 19.981wxwxwxwxwx6wx--1002.8 979.2----wx
1999-07-14 09:00:00 23.5--- 18.2 20.072wxwxwxwxwx6wx--1002.5 979.0----wx
1999-07-14 10:00:00 24.2--- 18.0 20.168wxwxwxwx6wx--1002.1 978.7----wx
1999-07-14 11:00:00 25.5--- 17.8 20.463wxwxwxwxwx5wx--1001.5 978.2----wx
1999-07-14 12:00:00 26.0--- 17.7 20.560wxwxwxwx6wx--1001.3 978.1 0.0---wx
1999-07-14 13:00:00 26.2--- 17.1 20.257wxwxwxwx9wx14-1001.1 977.9----wx
1999-07-14 14:00:00 22.0--- 17.1 18.874wxwxwxwxwx5wx--1002.4 978.8----wx
1999-07-14 15:00:00 20.8--- 17.3 18.580wxwxwxwx3wx--1003.1 979.4----wx
1999-07-14 16:00:00 20.4--- 18.0 18.886wxwxwxwx3wx--1003.7 980.0----wx
1999-07-14 17:00:00 18.8--- 15.8 16.983wxwxwxwx4wx--1005.3 981.4----wx
1999-07-14 18:00:00 18.2--- 15.8 16.786wxwxwxwx3wx--1005.1 981.2 0.3---wxw1
1999-07-14 19:00:00 18.2--- 15.8 16.786wxwxwxwx2wx--1006.1 982.1----wx
1999-07-14 20:00:00 18.0--- 16.3 16.990wxwxwxwx3wx--1006.9 982.9----wx
1999-07-14 21:00:00 18.1--- 15.7 16.686wxwxwx3wx--1007.3 983.3----wxw1
1999-07-14 22:00:00 16.4--- 14.8 15.490wxwxwx2wx--1007.8 983.6----wx
1999-07-14 23:00:00 15.4--- 13.9 14.591wxwxwx3wx--1007.9 983.7----wx

 

Źródłem pochodzenia danych jest Instytut Meteorologii i Gospodarki Wodnej – Państwowy Instytut Badawczy. Dane Instytutu Meteorologii i Gospodarki Wodnej – Państwowego Instytutu Badawczego zostały przetworzone.

Dane źródłowe można odnaleźć na stronie https://dane.imgw.pl